createdAt,value
2022-10-20T00:01:03.399Z,7.66
2022-10-20T00:06:03.342Z,7.61
2022-10-20T00:11:03.269Z,7.54
2022-10-20T00:16:03.210Z,7.54
2022-10-20T00:21:03.137Z,7.53
2022-10-20T00:26:03.080Z,7.51
2022-10-20T00:31:03.008Z,7.51
2022-10-20T00:36:02.950Z,7.47
2022-10-20T00:41:02.886Z,7.39
2022-10-20T00:46:02.821Z,7.29
2022-10-20T00:51:02.756Z,7.18
2022-10-20T00:56:02.694Z,7.13
2022-10-20T01:01:02.625Z,7.05
2022-10-20T01:06:02.560Z,6.96
2022-10-20T01:11:02.493Z,6.84
2022-10-20T01:16:02.437Z,6.74
2022-10-20T01:21:02.354Z,6.71
2022-10-20T01:26:02.307Z,6.65
2022-10-20T01:31:02.222Z,6.56
2022-10-20T01:36:02.173Z,6.43
2022-10-20T01:41:02.097Z,6.35
2022-10-20T01:46:02.041Z,6.25
2022-10-20T01:51:01.957Z,6.11
2022-10-20T01:56:01.896Z,6.14
2022-10-20T02:01:01.826Z,6.25
2022-10-20T02:06:01.763Z,6.35
2022-10-20T02:11:01.688Z,6.30
2022-10-20T02:16:01.630Z,6.25
2022-10-20T02:21:01.555Z,6.25
2022-10-20T02:26:01.495Z,6.19
2022-10-20T02:31:01.422Z,6.09
2022-10-20T02:36:01.372Z,5.94
2022-10-20T02:41:01.285Z,5.86
2022-10-20T02:46:01.236Z,5.76
2022-10-20T02:51:01.151Z,5.68
2022-10-20T02:56:01.106Z,5.59
2022-10-20T03:01:01.019Z,5.49
2022-10-20T03:06:00.973Z,5.37
2022-10-20T03:11:00.887Z,5.22
2022-10-20T03:16:00.828Z,5.14
2022-10-20T03:21:00.758Z,5.06
2022-10-20T03:26:00.696Z,4.96
2022-10-20T03:31:00.626Z,4.89
2022-10-20T03:36:00.568Z,4.86
2022-10-20T03:46:00.441Z,4.83
2022-10-20T03:51:00.371Z,4.81
2022-10-20T03:56:00.293Z,4.80
2022-10-20T04:01:00.249Z,4.71
2022-10-20T04:06:00.173Z,4.63
2022-10-20T04:11:00.124Z,4.60
2022-10-20T04:16:00.044Z,4.56
2022-10-20T04:20:59.995Z,4.52
2022-10-20T04:25:59.913Z,4.52
2022-10-20T04:30:59.866Z,4.52
2022-10-20T04:35:59.786Z,4.52
2022-10-20T04:41:01.891Z,4.53
2022-10-20T04:46:01.555Z,4.55
2022-10-20T04:50:59.595Z,4.59
2022-10-20T04:55:59.518Z,4.63
2022-10-20T05:00:59.459Z,4.66
2022-10-20T05:05:59.386Z,4.62
2022-10-20T05:10:59.329Z,4.59
2022-10-20T05:15:59.255Z,4.60
2022-10-20T05:21:14.523Z,4.68
2022-10-20T05:26:00.151Z,4.81
2022-10-20T05:31:01.393Z,4.86
2022-10-20T05:35:58.991Z,4.85
2022-10-20T05:40:58.993Z,4.83
2022-10-20T05:45:59.012Z,5.17
2022-10-20T05:50:59.061Z,5.28
2022-10-20T05:55:59.025Z,5.32
2022-10-20T06:00:59.117Z,5.37
2022-10-20T06:05:59.047Z,5.42
2022-10-20T06:10:59.088Z,5.59
2022-10-20T06:15:58.465Z,5.72
2022-10-20T06:20:58.409Z,5.87
2022-10-20T06:25:58.335Z,6.40
2022-10-20T06:30:58.280Z,7.02
2022-10-20T06:35:58.209Z,7.65
2022-10-20T06:40:58.149Z,8.88
2022-10-20T06:45:58.071Z,9.25
2022-10-20T06:50:58.017Z,9.04
2022-10-20T06:55:57.942Z,9.35
2022-10-20T07:00:57.884Z,8.79
2022-10-20T07:05:57.810Z,8.56
2022-10-20T07:10:57.757Z,8.35
2022-10-20T07:15:57.690Z,8.44
2022-10-20T07:20:57.621Z,8.48
2022-10-20T07:25:57.560Z,8.66
2022-10-20T07:30:57.493Z,8.51
2022-10-20T07:35:57.437Z,8.49
2022-10-20T07:41:00.641Z,9.02
2022-10-20T07:45:57.298Z,9.07
2022-10-20T07:50:57.231Z,9.42
2022-10-20T07:55:57.157Z,9.82
2022-10-20T08:00:57.099Z,9.87
2022-10-20T08:05:57.028Z,11.63
2022-10-20T08:10:56.968Z,13.23
2022-10-20T08:15:57.141Z,14.60
2022-10-20T08:20:56.838Z,16.00
2022-10-20T08:25:56.763Z,17.12
2022-10-20T08:30:56.706Z,17.54
2022-10-20T08:35:56.642Z,15.80
2022-10-20T08:40:56.582Z,15.27
2022-10-20T08:45:56.512Z,15.98
2022-10-20T08:50:56.445Z,16.27
2022-10-20T08:55:56.385Z,15.57
2022-10-20T09:00:56.315Z,16.27
2022-10-20T09:05:56.248Z,16.17
2022-10-20T09:10:56.184Z,16.09
2022-10-20T09:15:56.120Z,15.10
2022-10-20T09:20:56.053Z,15.75
2022-10-20T09:25:55.989Z,14.51
2022-10-20T09:30:55.922Z,15.39
2022-10-20T09:35:55.861Z,15.01
2022-10-20T09:40:55.789Z,14.30
2022-10-20T09:45:55.728Z,14.83
2022-10-20T09:50:55.660Z,15.90
2022-10-20T09:55:55.586Z,14.81
2022-10-20T10:00:55.566Z,15.94
2022-10-20T10:05:55.461Z,16.68
2022-10-20T10:10:55.415Z,16.34
2022-10-20T10:15:55.325Z,17.45
2022-10-20T10:20:55.270Z,17.27
2022-10-20T10:25:59.143Z,16.93
2022-10-20T10:30:55.141Z,16.75
2022-10-20T10:35:55.080Z,16.56
2022-10-20T10:40:55.013Z,16.02
2022-10-20T10:45:54.949Z,16.41
2022-10-20T10:50:54.884Z,16.71
2022-10-20T10:55:54.861Z,17.20
2022-10-20T11:00:54.819Z,16.56
2022-10-20T11:05:54.699Z,17.26
2022-10-20T11:10:54.623Z,17.91
2022-10-20T11:15:54.544Z,17.06
2022-10-20T11:20:54.489Z,17.15
2022-10-20T11:25:54.415Z,16.60
2022-10-20T11:30:54.355Z,16.32
2022-10-20T11:35:54.284Z,15.61
2022-10-20T11:40:54.225Z,15.58
2022-10-20T11:45:54.169Z,15.39
2022-10-20T11:50:54.135Z,15.62
2022-10-20T11:55:54.024Z,15.32
2022-10-20T12:00:56.265Z,15.24
2022-10-20T12:05:53.891Z,14.78
2022-10-20T12:10:53.834Z,14.44
2022-10-20T12:15:53.759Z,14.41
2022-10-20T12:20:53.699Z,14.80
2022-10-20T12:25:53.625Z,14.99
2022-10-20T12:30:53.587Z,14.85
2022-10-20T12:35:53.493Z,14.99
2022-10-20T12:40:53.446Z,15.05
2022-10-20T12:45:53.361Z,15.20
2022-10-20T12:50:53.312Z,15.36
2022-10-20T12:55:53.245Z,15.43
2022-10-20T13:00:53.254Z,15.45
2022-10-20T13:05:53.101Z,15.35
2022-10-20T13:10:53.059Z,15.34
2022-10-20T13:15:52.973Z,15.46
2022-10-20T13:20:52.915Z,15.54
2022-10-20T13:25:52.845Z,15.59
2022-10-20T13:30:52.790Z,15.70
2022-10-20T13:35:52.716Z,15.73
2022-10-20T13:40:52.716Z,15.75
2022-10-20T13:45:52.589Z,15.76
2022-10-20T13:50:52.527Z,15.80
2022-10-20T13:55:52.454Z,15.80
2022-10-20T14:00:52.468Z,15.73
2022-10-20T14:05:52.323Z,15.67
2022-10-20T14:10:52.276Z,15.65
2022-10-20T14:15:52.198Z,15.54
2022-10-20T14:20:52.147Z,15.52
2022-10-20T14:25:52.063Z,15.52
2022-10-20T14:30:52.015Z,15.42
2022-10-20T14:35:51.931Z,15.35
2022-10-20T14:40:51.876Z,15.23
2022-10-20T14:45:51.805Z,15.16
2022-10-20T14:50:51.747Z,15.06
2022-10-20T14:55:51.679Z,14.95
2022-10-20T15:00:51.619Z,14.91
2022-10-20T15:05:51.546Z,14.91
2022-10-20T15:10:51.489Z,14.87
2022-10-20T15:15:51.417Z,14.81
2022-10-20T15:20:51.371Z,14.68
2022-10-20T15:25:51.290Z,14.45
2022-10-20T15:30:51.242Z,14.33
2022-10-20T15:35:51.180Z,14.51
2022-10-20T15:40:51.167Z,14.53
2022-10-20T15:45:51.036Z,14.50
2022-10-20T15:50:50.987Z,14.51
2022-10-20T15:55:50.900Z,14.55
2022-10-20T16:00:50.915Z,14.58
2022-10-20T16:05:50.770Z,14.77
2022-10-20T16:10:50.714Z,14.77
2022-10-20T16:15:50.640Z,14.69
2022-10-20T16:20:50.579Z,14.43
2022-10-20T16:25:50.507Z,14.15
2022-10-20T16:30:50.450Z,13.95
2022-10-20T16:35:50.374Z,13.85
2022-10-20T16:40:50.327Z,13.80
2022-10-20T16:45:50.245Z,13.85
2022-10-20T16:50:50.194Z,14.47
2022-10-20T16:55:50.110Z,14.58
2022-10-20T17:00:50.150Z,14.40
2022-10-20T17:05:49.977Z,14.20
2022-10-20T17:10:49.929Z,13.95
2022-10-20T17:15:49.854Z,13.77
2022-10-20T17:20:49.786Z,13.69
2022-10-20T17:25:49.724Z,13.58
2022-10-20T17:30:49.656Z,13.46
2022-10-20T17:35:49.590Z,13.38
2022-10-20T17:40:49.525Z,13.34
2022-10-20T17:45:49.458Z,13.33
2022-10-20T17:50:49.392Z,13.31
2022-10-20T17:55:49.321Z,13.23
2022-10-20T18:00:56.728Z,13.19
2022-10-20T18:05:49.187Z,13.16
2022-10-20T18:10:49.127Z,13.12
2022-10-20T18:15:49.056Z,13.13
2022-10-20T18:20:49.001Z,13.15
2022-10-20T18:25:48.925Z,13.16
2022-10-20T18:30:48.866Z,13.22
2022-10-20T18:35:48.804Z,13.22
2022-10-20T18:40:48.737Z,13.19
2022-10-20T18:45:48.673Z,13.15
2022-10-20T18:50:48.605Z,13.18
2022-10-20T18:55:48.539Z,13.18
2022-10-20T19:00:48.520Z,13.18
2022-10-20T19:05:48.411Z,13.11
2022-10-20T19:10:48.347Z,13.04
2022-10-20T19:15:48.268Z,12.98
2022-10-20T19:20:48.212Z,12.94
2022-10-20T19:25:48.150Z,12.95
2022-10-20T19:30:48.082Z,12.93
2022-10-20T19:35:48.011Z,12.93
2022-10-20T19:40:47.952Z,12.94
2022-10-20T19:45:49.774Z,12.95
2022-10-20T19:50:47.819Z,12.95
2022-10-20T19:55:47.747Z,12.95
2022-10-20T20:00:47.767Z,12.95
2022-10-20T20:05:48.402Z,12.95
2022-10-20T20:10:47.557Z,12.97
2022-10-20T20:15:47.484Z,12.95
2022-10-20T20:20:47.428Z,12.94
2022-10-20T20:25:47.406Z,12.94
2022-10-20T20:30:47.294Z,12.94
2022-10-20T20:35:47.231Z,12.94
2022-10-20T20:40:47.165Z,12.97
2022-10-20T20:45:47.100Z,12.98
2022-10-20T20:50:47.035Z,13.03
2022-10-20T20:55:46.970Z,13.08
2022-10-20T21:00:47.152Z,13.25
2022-10-20T21:05:47.188Z,13.31
2022-10-20T21:10:46.770Z,13.36
2022-10-20T21:15:46.696Z,13.46
2022-10-20T21:20:46.637Z,13.45
2022-10-20T21:25:46.563Z,13.48
2022-10-20T21:30:46.505Z,13.46
2022-10-20T21:35:46.432Z,13.48
2022-10-20T21:40:46.373Z,13.48
2022-10-20T21:45:46.300Z,13.41
2022-10-20T21:50:46.241Z,13.43
2022-10-20T21:55:46.178Z,13.43
2022-10-20T22:00:46.213Z,13.46
2022-10-20T22:05:46.046Z,13.46
2022-10-20T22:10:45.979Z,13.49
2022-10-20T22:15:46.030Z,13.52
2022-10-20T22:20:45.846Z,13.51
2022-10-20T22:25:45.873Z,13.49
2022-10-20T22:30:45.775Z,13.45
2022-10-20T22:35:45.692Z,13.45
2022-10-20T22:40:45.650Z,13.48
2022-10-20T22:45:45.559Z,13.46
2022-10-20T22:50:45.458Z,13.43
2022-10-20T22:55:45.379Z,13.40
2022-10-20T23:00:45.380Z,13.37
2022-10-20T23:05:45.243Z,13.36
2022-10-20T23:10:45.194Z,13.41
2022-10-20T23:15:45.164Z,13.43
2022-10-20T23:20:45.096Z,13.45
2022-10-20T23:25:44.982Z,13.45
2022-10-20T23:30:44.921Z,13.43
2022-10-20T23:35:44.850Z,13.45
2022-10-20T23:40:44.789Z,13.43
2022-10-20T23:45:44.715Z,13.38
2022-10-20T23:50:44.656Z,13.37
2022-10-20T23:55:44.582Z,13.31
